createdAt,value
2019-01-13T00:02:06.377Z,2.50
2019-01-13T00:07:12.335Z,2.00
2019-01-13T00:12:17.961Z,2.33
2019-01-13T00:17:23.588Z,2.37
2019-01-13T00:22:29.620Z,2.03
2019-01-13T00:27:35.579Z,1.73
2019-01-13T00:32:41.181Z,2.17
2019-01-13T00:37:47.206Z,1.80
2019-01-13T00:42:52.798Z,1.60
2019-01-13T00:47:58.449Z,1.83
2019-01-13T00:53:04.124Z,2.10
2019-01-13T00:58:09.797Z,1.87
2019-01-13T01:03:15.533Z,1.97
2019-01-13T01:08:21.369Z,2.00
2019-01-13T01:13:27.019Z,1.90
2019-01-13T01:18:34.617Z,2.40
2019-01-13T01:23:40.629Z,2.10
2019-01-13T01:28:46.604Z,2.80
2019-01-13T01:33:52.540Z,2.47
2019-01-13T01:38:58.118Z,2.60
2019-01-13T01:44:06.056Z,2.40
2019-01-13T01:49:11.683Z,2.83
2019-01-13T01:54:17.321Z,2.90
2019-01-13T01:59:23.234Z,3.00
2019-01-13T02:04:28.838Z,2.47
2019-01-13T02:09:34.564Z,2.50
2019-01-13T02:14:42.430Z,2.87
2019-01-13T02:19:49.186Z,2.50
2019-01-13T02:24:54.802Z,2.70
2019-01-13T02:30:00.421Z,2.10
2019-01-13T02:35:06.943Z,2.10
2019-01-13T02:40:14.774Z,2.30
2019-01-13T02:45:26.156Z,2.17
2019-01-13T02:50:32.190Z,1.80
2019-01-13T02:55:37.852Z,2.50
2019-01-13T03:00:43.942Z,1.90
2019-01-13T03:05:49.906Z,2.33
2019-01-13T03:10:55.562Z,1.87
2019-01-13T03:16:01.185Z,2.30
2019-01-13T03:21:10.292Z,2.20
2019-01-13T03:26:15.948Z,2.57
2019-01-13T03:31:22.238Z,2.73
2019-01-13T03:36:27.864Z,2.20
2019-01-13T03:41:33.560Z,2.20
2019-01-13T03:46:40.656Z,2.07
2019-01-13T03:51:46.292Z,1.90
2019-01-13T03:56:51.941Z,2.20
2019-01-13T04:01:57.601Z,1.93
2019-01-13T04:07:05.922Z,2.10
2019-01-13T04:12:12.058Z,2.37
2019-01-13T04:17:20.130Z,2.10
2019-01-13T04:22:25.740Z,2.23
2019-01-13T04:27:31.350Z,2.33
2019-01-13T04:32:37.389Z,1.57
2019-01-13T04:37:43.006Z,1.80
2019-01-13T04:42:51.816Z,1.80
2019-01-13T04:48:00.240Z,1.90
2019-01-13T04:53:06.569Z,1.50
2019-01-13T04:58:12.278Z,1.50
2019-01-13T05:03:17.877Z,1.73
2019-01-13T05:08:26.368Z,1.43
2019-01-13T05:13:32.032Z,1.80
2019-01-13T05:18:37.620Z,1.80
2019-01-13T05:23:43.206Z,1.73
2019-01-13T05:28:48.840Z,1.47
2019-01-13T05:33:55.743Z,1.47
2019-01-13T05:39:01.408Z,1.80
2019-01-13T05:44:08.330Z,1.30
2019-01-13T05:49:13.918Z,1.63
2019-01-13T05:54:19.533Z,1.27
2019-01-13T05:59:25.643Z,1.40
2019-01-13T06:04:31.228Z,1.70
2019-01-13T06:09:37.180Z,1.93
2019-01-13T06:14:43.342Z,1.63
2019-01-13T06:19:48.950Z,1.37
2019-01-13T06:24:54.540Z,1.60
2019-01-13T06:30:00.226Z,1.70
2019-01-13T06:35:07.834Z,1.30
2019-01-13T06:40:15.762Z,1.70
2019-01-13T06:45:26.223Z,2.10
2019-01-13T06:50:31.850Z,2.00
2019-01-13T06:55:37.441Z,2.57
2019-01-13T07:00:43.063Z,2.70
2019-01-13T07:05:50.718Z,3.03
2019-01-13T07:10:56.305Z,1.77
2019-01-13T07:16:04.964Z,1.33
2019-01-13T07:21:10.833Z,1.63
2019-01-13T07:26:17.650Z,1.90
2019-01-13T07:31:23.251Z,1.70
2019-01-13T07:36:28.894Z,2.00
2019-01-13T07:41:34.466Z,2.30
2019-01-13T07:46:40.085Z,1.87
2019-01-13T07:51:46.765Z,2.10
2019-01-13T07:56:52.519Z,1.67
2019-01-13T08:01:58.125Z,2.03
2019-01-13T08:07:07.807Z,1.67
2019-01-13T08:12:13.793Z,2.53
2019-01-13T08:17:19.694Z,2.10
2019-01-13T08:22:25.338Z,1.90
2019-01-13T08:27:33.400Z,2.00
2019-01-13T08:32:41.839Z,1.97
2019-01-13T08:37:48.164Z,1.60
2019-01-13T08:42:53.822Z,2.23
2019-01-13T08:47:59.471Z,1.80
2019-01-13T08:53:07.626Z,1.47
2019-01-13T08:58:13.230Z,2.10
2019-01-13T09:03:18.913Z,2.00
2019-01-13T09:08:26.572Z,1.50
2019-01-13T09:13:32.541Z,1.80
2019-01-13T09:18:38.206Z,1.80
2019-01-13T09:23:44.157Z,1.90
2019-01-13T09:28:49.822Z,1.43
2019-01-13T09:33:55.462Z,1.60
2019-01-13T09:39:01.105Z,2.30
2019-01-13T09:44:10.947Z,1.93
2019-01-13T09:49:19.197Z,2.10
2019-01-13T09:54:25.990Z,2.10
2019-01-13T09:59:31.689Z,2.07
2019-01-13T10:04:37.718Z,1.87
2019-01-13T10:09:45.253Z,2.77
2019-01-13T10:14:53.687Z,1.97
2019-01-13T10:19:59.512Z,2.67
2019-01-13T10:25:07.508Z,2.20
2019-01-13T10:30:19.693Z,2.23
2019-01-13T10:35:25.667Z,2.33
2019-01-13T10:40:33.533Z,2.43
2019-01-13T10:45:40.704Z,2.23
2019-01-13T10:50:47.471Z,2.07
2019-01-13T10:55:55.584Z,2.20
2019-01-13T11:04:48.850Z,1.77
2019-01-13T11:09:54.970Z,2.10
2019-01-13T11:15:10.063Z,2.10
2019-01-13T11:20:24.021Z,2.63
2019-01-13T11:25:29.747Z,1.63
2019-01-13T11:30:35.403Z,1.50
2019-01-13T11:35:42.580Z,2.03
2019-01-13T11:40:48.282Z,1.57
2019-01-13T11:45:56.218Z,2.07
2019-01-13T11:51:03.809Z,1.57
2019-01-13T11:56:14.042Z,1.40
2019-01-13T12:01:20.059Z,1.60
2019-01-13T12:06:26.171Z,1.60
2019-01-13T12:11:31.870Z,1.40
2019-01-13T12:16:38.937Z,1.20
2019-01-13T12:21:45.167Z,1.17
2019-01-13T12:26:50.838Z,1.43
2019-01-13T12:31:57.808Z,1.00
2019-01-13T12:37:05.564Z,0.80
2019-01-13T12:42:12.443Z,1.03
2019-01-13T12:47:19.656Z,0.83
2019-01-13T12:52:27.669Z,0.83
2019-01-13T12:57:35.629Z,0.70
2019-01-13T13:02:41.363Z,0.77
2019-01-13T13:07:49.119Z,0.90
2019-01-13T13:12:54.806Z,0.90
2019-01-13T13:18:00.923Z,0.80
2019-01-13T13:23:11.439Z,0.90
2019-01-13T13:28:19.142Z,0.70
2019-01-13T13:33:25.634Z,0.73
2019-01-13T13:38:31.305Z,0.80
2019-01-13T13:43:35.456Z,0.90
2019-01-13T13:48:41.169Z,1.40
2019-01-13T13:53:48.430Z,0.77
2019-01-13T13:58:55.623Z,0.90
2019-01-13T14:04:05.729Z,0.90
2019-01-13T14:09:13.758Z,0.80
2019-01-13T14:14:19.478Z,0.90
2019-01-13T14:19:25.258Z,0.60
2019-01-13T14:24:32.957Z,0.80
2019-01-13T14:29:39.445Z,0.83
2019-01-13T14:34:53.045Z,0.77
2019-01-13T14:40:03.170Z,0.70
2019-01-13T14:45:13.827Z,0.90
2019-01-13T14:50:22.093Z,1.07
2019-01-13T14:55:30.586Z,0.90
2019-01-13T15:00:37.638Z,0.97
2019-01-13T15:05:46.007Z,0.70
2019-01-13T15:10:53.744Z,0.90
2019-01-13T15:16:02.898Z,1.00
2019-01-13T15:21:11.929Z,0.80
2019-01-13T15:26:18.868Z,0.73
2019-01-13T15:31:27.899Z,0.60
2019-01-13T15:36:34.560Z,0.70
2019-01-13T15:41:40.281Z,0.70
2019-01-13T15:46:48.851Z,0.90
2019-01-13T15:51:56.931Z,0.80
2019-01-13T15:57:03.139Z,1.00
2019-01-13T16:02:09.431Z,0.80
2019-01-13T16:07:15.160Z,1.00
2019-01-13T16:12:21.686Z,1.10
2019-01-13T16:17:31.226Z,1.10
2019-01-13T16:22:37.954Z,1.00
2019-01-13T16:27:43.715Z,0.97
2019-01-13T16:33:00.849Z,1.20
2019-01-13T16:38:08.824Z,2.20
2019-01-13T16:43:16.803Z,2.37
2019-01-13T16:48:24.455Z,1.20
2019-01-13T16:53:30.899Z,1.10
2019-01-13T16:58:36.631Z,1.10
2019-01-13T17:03:43.122Z,0.80
2019-01-13T17:08:48.811Z,0.80
2019-01-13T17:13:55.920Z,1.00
2019-01-13T17:19:05.997Z,0.90
2019-01-13T17:24:12.966Z,0.80
2019-01-13T17:29:20.030Z,0.90
2019-01-13T17:34:35.826Z,0.80
2019-01-13T17:39:38.839Z,0.97
2019-01-13T17:44:44.700Z,0.80
2019-01-13T17:49:52.128Z,1.10
2019-01-13T17:54:59.372Z,1.00
2019-01-13T18:00:12.584Z,1.10
2019-01-13T18:05:19.846Z,1.23
2019-01-13T18:10:28.506Z,0.83
2019-01-13T18:15:34.680Z,1.30
2019-01-13T18:20:40.435Z,1.23
2019-01-13T18:25:47.156Z,1.40
2019-01-13T18:30:53.758Z,1.80
2019-01-13T18:36:02.116Z,1.80
2019-01-13T18:41:22.022Z,1.80
2019-01-13T18:46:27.784Z,1.97
2019-01-13T18:51:37.924Z,2.50
2019-01-13T18:56:45.171Z,2.03
2019-01-13T19:01:50.919Z,1.80
2019-01-13T19:07:00.258Z,1.97
2019-01-13T19:12:15.308Z,1.90
2019-01-13T19:17:29.216Z,2.20
2019-01-13T19:22:39.337Z,1.90
2019-01-13T19:27:46.342Z,1.80
2019-01-13T19:32:54.870Z,1.77
2019-01-13T19:38:05.764Z,1.70
2019-01-13T19:43:23.601Z,1.70
2019-01-13T19:48:33.635Z,1.80
2019-01-13T19:53:40.633Z,2.00
2019-01-13T19:58:48.292Z,1.30
2019-01-13T20:03:54.426Z,0.93
2019-01-13T20:09:00.971Z,0.50
2019-01-13T20:14:09.460Z,0.60
2019-01-13T20:19:15.065Z,0.70
2019-01-13T20:24:23.798Z,0.83
2019-01-13T20:29:31.483Z,0.70
2019-01-13T20:34:38.589Z,1.00
2019-01-13T20:39:45.756Z,1.00
2019-01-13T20:44:55.100Z,1.37
2019-01-13T20:50:01.020Z,1.70
2019-01-13T20:55:09.963Z,1.30
2019-01-13T21:00:22.219Z,1.20
2019-01-13T21:05:29.591Z,1.13
2019-01-13T21:10:45.173Z,1.10
2019-01-13T21:15:51.598Z,1.30
2019-01-13T21:20:58.213Z,1.30
2019-01-13T21:26:04.850Z,0.93
2019-01-13T21:31:16.859Z,1.43
2019-01-13T21:36:24.384Z,1.23
2019-01-13T21:41:30.280Z,1.37
2019-01-13T21:46:35.977Z,2.17
2019-01-13T21:51:41.672Z,1.77
2019-01-13T21:56:48.597Z,1.30
2019-01-13T22:02:03.594Z,1.47
2019-01-13T22:07:15.512Z,1.57
2019-01-13T22:12:21.723Z,1.50
2019-01-13T22:17:27.360Z,1.70
2019-01-13T22:28:56.727Z,2.57
2019-01-13T22:34:02.431Z,1.40
2019-01-13T22:39:09.044Z,1.53
2019-01-13T22:44:14.689Z,1.23
2019-01-13T22:49:20.286Z,1.33
2019-01-13T22:54:25.991Z,2.50
2019-01-13T22:59:31.669Z,1.10
2019-01-13T23:04:37.360Z,1.07
2019-01-13T23:09:42.986Z,1.33
2019-01-13T23:14:48.612Z,0.90
2019-01-13T23:19:54.229Z,1.27
2019-01-13T23:24:59.829Z,1.80
2019-01-13T23:30:09.283Z,1.30
2019-01-13T23:35:15.286Z,1.30
2019-01-13T23:40:20.942Z,1.90
2019-01-13T23:45:26.668Z,1.20
2019-01-13T23:56:33.926Z,1.53
